sensor_id;sensor_type;location;lat;lon;timestamp;P1;durP1;ratioP1;P2;durP2;ratioP2
27375;SDS011;14844;51.302;6.354;2022-12-18T00:01:44;54.13;;;25.95;;
27375;SDS011;14844;51.302;6.354;2022-12-18T00:04:20;56.85;;;26.80;;
27375;SDS011;14844;51.302;6.354;2022-12-18T00:06:47;61.33;;;27.55;;
27375;SDS011;14844;51.302;6.354;2022-12-18T00:09:13;59.97;;;28.42;;
27375;SDS011;14844;51.302;6.354;2022-12-18T00:11:39;62.40;;;28.13;;
27375;SDS011;14844;51.302;6.354;2022-12-18T00:14:05;56.13;;;26.65;;
27375;SDS011;14844;51.302;6.354;2022-12-18T00:16:30;56.95;;;26.92;;
27375;SDS011;14844;51.302;6.354;2022-12-18T00:18:58;53.38;;;25.48;;
27375;SDS011;14844;51.302;6.354;2022-12-18T00:21:24;51.35;;;24.63;;
27375;SDS011;14844;51.302;6.354;2022-12-18T00:23:51;50.38;;;23.98;;
27375;SDS011;14844;51.302;6.354;2022-12-18T00:26:18;59.25;;;25.27;;
27375;SDS011;14844;51.302;6.354;2022-12-18T00:28:45;51.58;;;25.00;;
27375;SDS011;14844;51.302;6.354;2022-12-18T00:31:12;53.08;;;24.33;;
27375;SDS011;14844;51.302;6.354;2022-12-18T00:33:40;51.08;;;25.38;;
27375;SDS011;14844;51.302;6.354;2022-12-18T00:36:06;56.10;;;25.15;;
27375;SDS011;14844;51.302;6.354;2022-12-18T00:38:37;54.58;;;25.25;;
27375;SDS011;14844;51.302;6.354;2022-12-18T00:41:04;56.50;;;27.60;;
27375;SDS011;14844;51.302;6.354;2022-12-18T00:43:30;53.67;;;25.08;;
27375;SDS011;14844;51.302;6.354;2022-12-18T00:45:58;52.30;;;24.75;;
27375;SDS011;14844;51.302;6.354;2022-12-18T00:48:24;50.80;;;23.60;;
27375;SDS011;14844;51.302;6.354;2022-12-18T00:50:50;49.78;;;23.38;;
27375;SDS011;14844;51.302;6.354;2022-12-18T00:53:16;41.42;;;21.45;;
27375;SDS011;14844;51.302;6.354;2022-12-18T00:55:41;45.72;;;23.48;;
27375;SDS011;14844;51.302;6.354;2022-12-18T00:58:08;51.40;;;23.67;;
27375;SDS011;14844;51.302;6.354;2022-12-18T01:00:34;43.08;;;21.83;;
27375;SDS011;14844;51.302;6.354;2022-12-18T01:03:00;48.47;;;22.30;;
27375;SDS011;14844;51.302;6.354;2022-12-18T01:05:27;46.45;;;22.20;;
27375;SDS011;14844;51.302;6.354;2022-12-18T01:07:52;47.83;;;22.58;;
27375;SDS011;14844;51.302;6.354;2022-12-18T01:10:18;44.95;;;22.40;;
27375;SDS011;14844;51.302;6.354;2022-12-18T01:12:43;48.35;;;22.38;;
27375;SDS011;14844;51.302;6.354;2022-12-18T01:15:09;48.90;;;22.30;;
27375;SDS011;14844;51.302;6.354;2022-12-18T01:17:37;45.67;;;22.90;;
27375;SDS011;14844;51.302;6.354;2022-12-18T01:20:03;44.63;;;21.52;;
27375;SDS011;14844;51.302;6.354;2022-12-18T01:22:29;44.05;;;21.05;;
27375;SDS011;14844;51.302;6.354;2022-12-18T01:24:54;40.45;;;19.55;;
27375;SDS011;14844;51.302;6.354;2022-12-18T01:27:20;45.10;;;21.20;;
27375;SDS011;14844;51.302;6.354;2022-12-18T01:29:45;42.40;;;20.75;;
27375;SDS011;14844;51.302;6.354;2022-12-18T01:32:11;43.78;;;21.23;;
27375;SDS011;14844;51.302;6.354;2022-12-18T01:34:36;48.92;;;22.13;;
27375;SDS011;14844;51.302;6.354;2022-12-18T01:37:04;42.65;;;21.10;;
27375;SDS011;14844;51.302;6.354;2022-12-18T01:39:30;44.38;;;20.80;;
27375;SDS011;14844;51.302;6.354;2022-12-18T01:42:00;45.60;;;21.42;;
27375;SDS011;14844;51.302;6.354;2022-12-18T01:47:20;43.45;;;20.80;;
27375;SDS011;14844;51.302;6.354;2022-12-18T01:49:45;42.83;;;20.95;;
27375;SDS011;14844;51.302;6.354;2022-12-18T01:52:11;42.78;;;20.80;;
27375;SDS011;14844;51.302;6.354;2022-12-18T01:54:36;44.95;;;22.25;;
27375;SDS011;14844;51.302;6.354;2022-12-18T01:57:02;40.33;;;20.33;;
27375;SDS011;14844;51.302;6.354;2022-12-18T01:59:28;40.80;;;20.55;;
27375;SDS011;14844;51.302;6.354;2022-12-18T02:01:56;42.20;;;21.13;;
27375;SDS011;14844;51.302;6.354;2022-12-18T02:04:22;42.10;;;21.35;;
27375;SDS011;14844;51.302;6.354;2022-12-18T02:06:51;41.97;;;20.73;;
27375;SDS011;14844;51.302;6.354;2022-12-18T02:09:32;44.90;;;21.25;;
27375;SDS011;14844;51.302;6.354;2022-12-18T02:12:11;44.13;;;21.23;;
27375;SDS011;14844;51.302;6.354;2022-12-18T02:20:21;47.28;;;21.35;;
27375;SDS011;14844;51.302;6.354;2022-12-18T02:26:06;45.33;;;20.77;;
27375;SDS011;14844;51.302;6.354;2022-12-18T02:28:56;46.53;;;20.65;;
27375;SDS011;14844;51.302;6.354;2022-12-18T02:31:27;50.90;;;21.77;;
27375;SDS011;14844;51.302;6.354;2022-12-18T02:33:56;45.65;;;21.65;;
27375;SDS011;14844;51.302;6.354;2022-12-18T02:36:25;50.00;;;21.63;;
27375;SDS011;14844;51.302;6.354;2022-12-18T02:38:53;54.53;;;22.48;;
27375;SDS011;14844;51.302;6.354;2022-12-18T02:41:20;46.70;;;21.33;;
27375;SDS011;14844;51.302;6.354;2022-12-18T02:43:48;44.40;;;21.85;;
27375;SDS011;14844;51.302;6.354;2022-12-18T02:46:25;48.78;;;21.05;;
27375;SDS011;14844;51.302;6.354;2022-12-18T02:48:54;43.17;;;21.35;;
27375;SDS011;14844;51.302;6.354;2022-12-18T02:51:38;42.72;;;20.90;;
27375;SDS011;14844;51.302;6.354;2022-12-18T02:54:07;44.55;;;21.35;;
27375;SDS011;14844;51.302;6.354;2022-12-18T02:56:43;45.17;;;21.15;;
27375;SDS011;14844;51.302;6.354;2022-12-18T02:59:16;44.33;;;21.55;;
27375;SDS011;14844;51.302;6.354;2022-12-18T03:07:05;42.45;;;20.58;;
27375;SDS011;14844;51.302;6.354;2022-12-18T03:09:41;45.67;;;21.17;;
27375;SDS011;14844;51.302;6.354;2022-12-18T03:12:14;42.50;;;21.48;;
27375;SDS011;14844;51.302;6.354;2022-12-18T03:14:50;44.25;;;21.08;;
27375;SDS011;14844;51.302;6.354;2022-12-18T03:17:38;43.08;;;19.67;;
27375;SDS011;14844;51.302;6.354;2022-12-18T03:20:12;44.45;;;20.23;;
27375;SDS011;14844;51.302;6.354;2022-12-18T03:22:41;45.50;;;21.15;;
27375;SDS011;14844;51.302;6.354;2022-12-18T03:25:10;46.95;;;21.35;;
27375;SDS011;14844;51.302;6.354;2022-12-18T03:27:40;42.08;;;21.00;;
27375;SDS011;14844;51.302;6.354;2022-12-18T03:30:09;45.08;;;20.60;;
27375;SDS011;14844;51.302;6.354;2022-12-18T03:32:42;36.97;;;19.40;;
27375;SDS011;14844;51.302;6.354;2022-12-18T03:35:14;44.42;;;20.20;;
27375;SDS011;14844;51.302;6.354;2022-12-18T03:37:45;41.10;;;19.85;;
27375;SDS011;14844;51.302;6.354;2022-12-18T03:40:11;42.03;;;20.48;;
27375;SDS011;14844;51.302;6.354;2022-12-18T03:42:49;40.72;;;20.42;;
27375;SDS011;14844;51.302;6.354;2022-12-18T03:47:58;40.78;;;20.60;;
27375;SDS011;14844;51.302;6.354;2022-12-18T03:50:42;45.25;;;20.40;;
27375;SDS011;14844;51.302;6.354;2022-12-18T03:55:54;46.40;;;20.83;;
27375;SDS011;14844;51.302;6.354;2022-12-18T03:58:23;40.33;;;20.35;;
27375;SDS011;14844;51.302;6.354;2022-12-18T04:00:50;41.88;;;20.60;;
27375;SDS011;14844;51.302;6.354;2022-12-18T04:03:19;43.28;;;20.45;;
27375;SDS011;14844;51.302;6.354;2022-12-18T04:05:46;44.50;;;20.83;;
27375;SDS011;14844;51.302;6.354;2022-12-18T04:08:13;41.40;;;21.48;;
27375;SDS011;14844;51.302;6.354;2022-12-18T04:10:39;44.47;;;20.55;;
27375;SDS011;14844;51.302;6.354;2022-12-18T04:13:05;46.30;;;21.70;;
27375;SDS011;14844;51.302;6.354;2022-12-18T04:15:31;43.72;;;20.63;;
27375;SDS011;14844;51.302;6.354;2022-12-18T04:18:00;43.45;;;20.52;;
27375;SDS011;14844;51.302;6.354;2022-12-18T04:20:25;42.13;;;20.70;;
27375;SDS011;14844;51.302;6.354;2022-12-18T04:22:51;48.47;;;21.67;;
27375;SDS011;14844;51.302;6.354;2022-12-18T04:25:16;43.92;;;20.65;;
27375;SDS011;14844;51.302;6.354;2022-12-18T04:27:42;42.13;;;19.90;;
27375;SDS011;14844;51.302;6.354;2022-12-18T04:30:07;38.03;;;19.83;;
27375;SDS011;14844;51.302;6.354;2022-12-18T04:32:34;39.50;;;20.35;;
27375;SDS011;14844;51.302;6.354;2022-12-18T04:34:59;40.10;;;20.95;;
27375;SDS011;14844;51.302;6.354;2022-12-18T04:37:25;45.35;;;21.00;;
27375;SDS011;14844;51.302;6.354;2022-12-18T04:39:51;42.95;;;20.02;;
27375;SDS011;14844;51.302;6.354;2022-12-18T04:42:16;40.97;;;20.80;;
27375;SDS011;14844;51.302;6.354;2022-12-18T04:44:42;40.30;;;20.27;;
27375;SDS011;14844;51.302;6.354;2022-12-18T04:47:07;45.70;;;21.00;;
27375;SDS011;14844;51.302;6.354;2022-12-18T04:49:33;42.13;;;20.90;;
27375;SDS011;14844;51.302;6.354;2022-12-18T04:51:58;39.88;;;20.60;;
27375;SDS011;14844;51.302;6.354;2022-12-18T04:54:24;38.55;;;19.75;;
27375;SDS011;14844;51.302;6.354;2022-12-18T04:56:50;39.88;;;20.40;;
27375;SDS011;14844;51.302;6.354;2022-12-18T04:59:15;40.35;;;20.65;;
27375;SDS011;14844;51.302;6.354;2022-12-18T05:01:41;36.78;;;18.55;;
27375;SDS011;14844;51.302;6.354;2022-12-18T05:04:06;42.72;;;19.45;;
27375;SDS011;14844;51.302;6.354;2022-12-18T05:06:32;37.65;;;19.90;;
27375;SDS011;14844;51.302;6.354;2022-12-18T05:08:57;41.50;;;19.35;;
27375;SDS011;14844;51.302;6.354;2022-12-18T05:11:23;48.10;;;20.60;;
27375;SDS011;14844;51.302;6.354;2022-12-18T05:13:49;39.60;;;20.13;;
27375;SDS011;14844;51.302;6.354;2022-12-18T05:16:14;37.03;;;20.05;;
27375;SDS011;14844;51.302;6.354;2022-12-18T05:18:40;42.45;;;20.77;;
27375;SDS011;14844;51.302;6.354;2022-12-18T05:21:05;42.08;;;19.92;;
27375;SDS011;14844;51.302;6.354;2022-12-18T05:23:31;40.15;;;19.88;;
27375;SDS011;14844;51.302;6.354;2022-12-18T05:25:57;37.97;;;19.98;;
27375;SDS011;14844;51.302;6.354;2022-12-18T05:28:25;37.47;;;18.85;;
27375;SDS011;14844;51.302;6.354;2022-12-18T05:30:53;38.88;;;19.58;;
27375;SDS011;14844;51.302;6.354;2022-12-18T05:33:21;37.83;;;19.75;;
27375;SDS011;14844;51.302;6.354;2022-12-18T05:35:55;39.53;;;18.58;;
27375;SDS011;14844;51.302;6.354;2022-12-18T05:38:23;40.67;;;19.52;;
27375;SDS011;14844;51.302;6.354;2022-12-18T05:40:50;34.47;;;18.65;;
27375;SDS011;14844;51.302;6.354;2022-12-18T05:43:16;45.00;;;21.17;;
27375;SDS011;14844;51.302;6.354;2022-12-18T05:45:42;38.40;;;18.92;;
27375;SDS011;14844;51.302;6.354;2022-12-18T05:48:09;38.10;;;20.00;;
27375;SDS011;14844;51.302;6.354;2022-12-18T05:50:39;38.25;;;19.70;;
27375;SDS011;14844;51.302;6.354;2022-12-18T05:53:06;43.90;;;20.48;;
27375;SDS011;14844;51.302;6.354;2022-12-18T05:55:35;40.17;;;20.10;;
27375;SDS011;14844;51.302;6.354;2022-12-18T05:58:02;41.33;;;20.83;;
27375;SDS011;14844;51.302;6.354;2022-12-18T06:00:29;45.53;;;21.67;;
27375;SDS011;14844;51.302;6.354;2022-12-18T06:02:55;40.33;;;19.88;;
27375;SDS011;14844;51.302;6.354;2022-12-18T06:05:20;45.38;;;22.48;;
27375;SDS011;14844;51.302;6.354;2022-12-18T06:07:46;42.05;;;22.02;;
27375;SDS011;14844;51.302;6.354;2022-12-18T06:10:11;40.72;;;20.52;;
27375;SDS011;14844;51.302;6.354;2022-12-18T06:12:37;42.35;;;21.90;;
27375;SDS011;14844;51.302;6.354;2022-12-18T06:15:03;44.60;;;20.95;;
27375;SDS011;14844;51.302;6.354;2022-12-18T06:17:29;44.15;;;21.58;;
27375;SDS011;14844;51.302;6.354;2022-12-18T06:19:56;45.05;;;22.20;;
27375;SDS011;14844;51.302;6.354;2022-12-18T06:22:21;41.83;;;22.33;;
27375;SDS011;14844;51.302;6.354;2022-12-18T06:24:47;47.60;;;22.45;;
27375;SDS011;14844;51.302;6.354;2022-12-18T06:27:13;41.25;;;20.70;;
27375;SDS011;14844;51.302;6.354;2022-12-18T06:29:39;47.45;;;22.02;;
27375;SDS011;14844;51.302;6.354;2022-12-18T06:32:04;47.08;;;22.48;;
27375;SDS011;14844;51.302;6.354;2022-12-18T06:34:30;41.45;;;21.73;;
27375;SDS011;14844;51.302;6.354;2022-12-18T06:36:57;42.80;;;22.05;;
27375;SDS011;14844;51.302;6.354;2022-12-18T06:39:22;44.15;;;22.10;;
27375;SDS011;14844;51.302;6.354;2022-12-18T06:41:48;46.30;;;22.85;;
27375;SDS011;14844;51.302;6.354;2022-12-18T06:44:13;43.72;;;22.20;;
27375;SDS011;14844;51.302;6.354;2022-12-18T06:46:39;43.15;;;22.45;;
27375;SDS011;14844;51.302;6.354;2022-12-18T06:49:04;43.92;;;23.00;;
27375;SDS011;14844;51.302;6.354;2022-12-18T06:51:30;43.53;;;22.65;;
27375;SDS011;14844;51.302;6.354;2022-12-18T06:53:56;49.58;;;24.13;;
27375;SDS011;14844;51.302;6.354;2022-12-18T06:56:21;43.13;;;21.98;;
27375;SDS011;14844;51.302;6.354;2022-12-18T06:58:47;47.58;;;22.85;;
27375;SDS011;14844;51.302;6.354;2022-12-18T07:01:13;47.42;;;23.48;;
27375;SDS011;14844;51.302;6.354;2022-12-18T07:03:39;46.10;;;22.92;;
27375;SDS011;14844;51.302;6.354;2022-12-18T07:06:05;42.92;;;22.17;;
27375;SDS011;14844;51.302;6.354;2022-12-18T07:08:31;48.28;;;23.83;;
27375;SDS011;14844;51.302;6.354;2022-12-18T07:10:58;49.03;;;24.35;;
27375;SDS011;14844;51.302;6.354;2022-12-18T07:13:24;49.47;;;23.85;;
27375;SDS011;14844;51.302;6.354;2022-12-18T07:15:50;47.55;;;24.00;;
27375;SDS011;14844;51.302;6.354;2022-12-18T07:18:15;46.88;;;23.80;;
27375;SDS011;14844;51.302;6.354;2022-12-18T07:20:41;51.33;;;24.23;;
27375;SDS011;14844;51.302;6.354;2022-12-18T07:23:06;50.03;;;24.30;;
27375;SDS011;14844;51.302;6.354;2022-12-18T07:25:35;49.95;;;24.70;;
27375;SDS011;14844;51.302;6.354;2022-12-18T07:28:01;47.50;;;23.25;;
27375;SDS011;14844;51.302;6.354;2022-12-18T07:30:28;46.13;;;23.60;;
27375;SDS011;14844;51.302;6.354;2022-12-18T07:32:53;47.55;;;24.27;;
27375;SDS011;14844;51.302;6.354;2022-12-18T07:35:19;48.03;;;24.13;;
27375;SDS011;14844;51.302;6.354;2022-12-18T07:37:44;50.53;;;24.35;;
27375;SDS011;14844;51.302;6.354;2022-12-18T07:40:10;48.70;;;23.65;;
27375;SDS011;14844;51.302;6.354;2022-12-18T07:42:36;44.83;;;22.40;;
27375;SDS011;14844;51.302;6.354;2022-12-18T07:45:02;45.20;;;23.38;;
27375;SDS011;14844;51.302;6.354;2022-12-18T07:47:28;46.72;;;23.08;;
27375;SDS011;14844;51.302;6.354;2022-12-18T07:49:57;46.78;;;22.98;;
27375;SDS011;14844;51.302;6.354;2022-12-18T07:52:22;48.45;;;23.00;;
27375;SDS011;14844;51.302;6.354;2022-12-18T07:54:48;47.58;;;22.63;;
27375;SDS011;14844;51.302;6.354;2022-12-18T07:57:15;47.95;;;22.85;;
27375;SDS011;14844;51.302;6.354;2022-12-18T07:59:41;46.70;;;23.60;;
27375;SDS011;14844;51.302;6.354;2022-12-18T08:02:06;45.78;;;23.58;;
27375;SDS011;14844;51.302;6.354;2022-12-18T08:04:35;48.10;;;23.42;;
27375;SDS011;14844;51.302;6.354;2022-12-18T08:07:00;45.78;;;22.98;;
27375;SDS011;14844;51.302;6.354;2022-12-18T08:09:26;47.28;;;22.48;;
27375;SDS011;14844;51.302;6.354;2022-12-18T08:11:51;45.03;;;22.05;;
27375;SDS011;14844;51.302;6.354;2022-12-18T08:14:17;46.03;;;22.20;;
27375;SDS011;14844;51.302;6.354;2022-12-18T08:16:42;45.95;;;21.92;;
27375;SDS011;14844;51.302;6.354;2022-12-18T08:19:08;45.92;;;21.77;;
27375;SDS011;14844;51.302;6.354;2022-12-18T08:21:35;44.05;;;22.05;;
27375;SDS011;14844;51.302;6.354;2022-12-18T08:24:00;39.55;;;20.40;;
27375;SDS011;14844;51.302;6.354;2022-12-18T08:26:28;41.20;;;20.95;;
27375;SDS011;14844;51.302;6.354;2022-12-18T08:28:55;42.20;;;21.30;;
27375;SDS011;14844;51.302;6.354;2022-12-18T08:31:22;40.28;;;20.52;;
27375;SDS011;14844;51.302;6.354;2022-12-18T08:33:48;38.05;;;20.05;;
27375;SDS011;14844;51.302;6.354;2022-12-18T08:36:15;41.90;;;20.27;;
27375;SDS011;14844;51.302;6.354;2022-12-18T08:38:41;41.60;;;20.85;;
27375;SDS011;14844;51.302;6.354;2022-12-18T08:41:08;37.13;;;20.33;;
27375;SDS011;14844;51.302;6.354;2022-12-18T08:43:37;42.35;;;20.77;;
27375;SDS011;14844;51.302;6.354;2022-12-18T08:46:21;34.90;;;18.85;;
27375;SDS011;14844;51.302;6.354;2022-12-18T08:48:52;35.63;;;18.95;;
27375;SDS011;14844;51.302;6.354;2022-12-18T08:51:20;38.27;;;19.43;;
27375;SDS011;14844;51.302;6.354;2022-12-18T08:53:46;33.47;;;18.75;;
27375;SDS011;14844;51.302;6.354;2022-12-18T08:56:12;31.55;;;17.98;;
27375;SDS011;14844;51.302;6.354;2022-12-18T08:58:38;37.53;;;18.85;;
27375;SDS011;14844;51.302;6.354;2022-12-18T09:01:06;36.65;;;19.30;;
27375;SDS011;14844;51.302;6.354;2022-12-18T09:03:34;33.83;;;18.25;;
27375;SDS011;14844;51.302;6.354;2022-12-18T09:05:59;36.03;;;18.80;;
27375;SDS011;14844;51.302;6.354;2022-12-18T09:08:26;37.10;;;19.77;;
27375;SDS011;14844;51.302;6.354;2022-12-18T09:10:52;38.28;;;19.80;;
27375;SDS011;14844;51.302;6.354;2022-12-18T09:13:17;35.67;;;19.23;;
27375;SDS011;14844;51.302;6.354;2022-12-18T09:15:47;37.95;;;19.05;;
27375;SDS011;14844;51.302;6.354;2022-12-18T09:18:16;32.83;;;17.90;;
27375;SDS011;14844;51.302;6.354;2022-12-18T09:20:43;34.70;;;18.65;;
27375;SDS011;14844;51.302;6.354;2022-12-18T09:23:10;35.67;;;18.92;;
27375;SDS011;14844;51.302;6.354;2022-12-18T09:25:37;38.70;;;19.77;;
27375;SDS011;14844;51.302;6.354;2022-12-18T09:28:04;33.72;;;18.75;;
27375;SDS011;14844;51.302;6.354;2022-12-18T09:30:31;34.15;;;19.15;;
27375;SDS011;14844;51.302;6.354;2022-12-18T09:32:59;34.60;;;19.25;;
27375;SDS011;14844;51.302;6.354;2022-12-18T09:35:25;34.20;;;18.77;;
27375;SDS011;14844;51.302;6.354;2022-12-18T09:37:53;34.22;;;18.50;;
27375;SDS011;14844;51.302;6.354;2022-12-18T09:40:21;31.35;;;17.95;;
27375;SDS011;14844;51.302;6.354;2022-12-18T09:42:52;36.25;;;18.30;;
27375;SDS011;14844;51.302;6.354;2022-12-18T09:45:24;31.85;;;18.15;;
27375;SDS011;14844;51.302;6.354;2022-12-18T09:47:52;33.05;;;17.67;;
27375;SDS011;14844;51.302;6.354;2022-12-18T09:50:24;32.22;;;17.77;;
27375;SDS011;14844;51.302;6.354;2022-12-18T09:52:55;35.10;;;18.10;;
27375;SDS011;14844;51.302;6.354;2022-12-18T09:55:37;34.92;;;18.83;;
27375;SDS011;14844;51.302;6.354;2022-12-18T10:00:36;34.85;;;18.77;;
27375;SDS011;14844;51.302;6.354;2022-12-18T10:03:14;40.13;;;20.35;;
27375;SDS011;14844;51.302;6.354;2022-12-18T10:11:13;36.72;;;19.55;;
27375;SDS011;14844;51.302;6.354;2022-12-18T10:17:03;32.50;;;17.83;;
27375;SDS011;14844;51.302;6.354;2022-12-18T10:25:27;36.00;;;18.27;;
27375;SDS011;14844;51.302;6.354;2022-12-18T10:28:07;31.67;;;18.27;;
27375;SDS011;14844;51.302;6.354;2022-12-18T10:30:38;36.58;;;19.80;;
27375;SDS011;14844;51.302;6.354;2022-12-18T10:33:05;38.63;;;20.35;;
27375;SDS011;14844;51.302;6.354;2022-12-18T10:35:35;37.85;;;19.17;;
27375;SDS011;14844;51.302;6.354;2022-12-18T10:40:55;35.42;;;20.75;;
27375;SDS011;14844;51.302;6.354;2022-12-18T10:43:26;36.15;;;19.48;;
27375;SDS011;14844;51.302;6.354;2022-12-18T10:48:34;30.50;;;18.10;;
27375;SDS011;14844;51.302;6.354;2022-12-18T10:51:05;33.53;;;18.77;;
27375;SDS011;14844;51.302;6.354;2022-12-18T10:53:34;37.05;;;18.55;;
27375;SDS011;14844;51.302;6.354;2022-12-18T10:56:02;34.00;;;17.92;;
27375;SDS011;14844;51.302;6.354;2022-12-18T10:58:32;37.45;;;21.85;;
27375;SDS011;14844;51.302;6.354;2022-12-18T11:01:10;40.17;;;22.00;;
27375;SDS011;14844;51.302;6.354;2022-12-18T11:03:44;45.33;;;24.38;;
27375;SDS011;14844;51.302;6.354;2022-12-18T11:06:20;39.15;;;20.80;;
27375;SDS011;14844;51.302;6.354;2022-12-18T11:09:03;49.03;;;24.75;;
27375;SDS011;14844;51.302;6.354;2022-12-18T11:11:30;43.03;;;21.50;;
27375;SDS011;14844;51.302;6.354;2022-12-18T11:14:02;38.00;;;20.67;;
27375;SDS011;14844;51.302;6.354;2022-12-18T11:16:32;31.48;;;18.08;;
27375;SDS011;14844;51.302;6.354;2022-12-18T11:22:19;36.20;;;20.73;;
27375;SDS011;14844;51.302;6.354;2022-12-18T11:24:58;33.63;;;18.67;;
27375;SDS011;14844;51.302;6.354;2022-12-18T11:27:24;31.40;;;17.58;;
27375;SDS011;14844;51.302;6.354;2022-12-18T11:29:50;30.67;;;17.05;;
27375;SDS011;14844;51.302;6.354;2022-12-18T11:34:59;32.33;;;19.02;;
27375;SDS011;14844;51.302;6.354;2022-12-18T11:37:36;43.00;;;25.67;;
27375;SDS011;14844;51.302;6.354;2022-12-18T11:40:13;41.72;;;25.05;;
27375;SDS011;14844;51.302;6.354;2022-12-18T11:42:48;30.88;;;17.58;;
27375;SDS011;14844;51.302;6.354;2022-12-18T11:45:26;32.67;;;18.13;;
27375;SDS011;14844;51.302;6.354;2022-12-18T11:48:14;33.50;;;18.33;;
27375;SDS011;14844;51.302;6.354;2022-12-18T11:50:55;36.33;;;17.80;;
27375;SDS011;14844;51.302;6.354;2022-12-18T11:53:22;34.85;;;18.10;;
27375;SDS011;14844;51.302;6.354;2022-12-18T11:55:51;31.70;;;18.13;;
27375;SDS011;14844;51.302;6.354;2022-12-18T12:08:51;31.65;;;17.50;;
27375;SDS011;14844;51.302;6.354;2022-12-18T12:11:42;32.25;;;17.23;;
27375;SDS011;14844;51.302;6.354;2022-12-18T12:19:32;36.83;;;19.52;;
27375;SDS011;14844;51.302;6.354;2022-12-18T12:24:59;34.42;;;18.52;;
27375;SDS011;14844;51.302;6.354;2022-12-18T12:30:26;31.10;;;17.98;;
27375;SDS011;14844;51.302;6.354;2022-12-18T12:33:17;33.00;;;18.73;;
27375;SDS011;14844;51.302;6.354;2022-12-18T12:38:55;31.92;;;17.35;;
27375;SDS011;14844;51.302;6.354;2022-12-18T12:41:27;36.10;;;19.10;;
27375;SDS011;14844;51.302;6.354;2022-12-18T12:44:23;32.38;;;17.92;;
27375;SDS011;14844;51.302;6.354;2022-12-18T12:49:45;39.00;;;18.67;;
27375;SDS011;14844;51.302;6.354;2022-12-18T12:52:17;32.67;;;18.70;;
27375;SDS011;14844;51.302;6.354;2022-12-18T12:57:21;33.20;;;18.20;;
27375;SDS011;14844;51.302;6.354;2022-12-18T13:00:09;31.67;;;18.08;;
27375;SDS011;14844;51.302;6.354;2022-12-18T13:05:30;34.90;;;18.45;;
27375;SDS011;14844;51.302;6.354;2022-12-18T13:08:03;35.58;;;19.15;;
27375;SDS011;14844;51.302;6.354;2022-12-18T13:10:40;32.25;;;19.02;;
27375;SDS011;14844;51.302;6.354;2022-12-18T13:13:10;37.92;;;19.80;;
27375;SDS011;14844;51.302;6.354;2022-12-18T13:15:42;35.38;;;19.60;;
27375;SDS011;14844;51.302;6.354;2022-12-18T13:25:48;50.28;;;28.83;;
27375;SDS011;14844;51.302;6.354;2022-12-18T13:28:15;35.25;;;19.63;;
27375;SDS011;14844;51.302;6.354;2022-12-18T13:30:42;42.03;;;21.10;;
27375;SDS011;14844;51.302;6.354;2022-12-18T13:38:24;38.08;;;20.00;;
27375;SDS011;14844;51.302;6.354;2022-12-18T13:41:00;36.88;;;20.73;;
27375;SDS011;14844;51.302;6.354;2022-12-18T13:43:38;34.50;;;19.50;;
27375;SDS011;14844;51.302;6.354;2022-12-18T13:51:26;39.70;;;20.42;;
27375;SDS011;14844;51.302;6.354;2022-12-18T13:56:23;35.00;;;20.17;;
27375;SDS011;14844;51.302;6.354;2022-12-18T14:04:26;38.20;;;20.75;;
27375;SDS011;14844;51.302;6.354;2022-12-18T14:06:57;37.72;;;20.92;;
27375;SDS011;14844;51.302;6.354;2022-12-18T14:09:29;39.38;;;22.13;;
27375;SDS011;14844;51.302;6.354;2022-12-18T14:11:59;41.38;;;20.63;;
27375;SDS011;14844;51.302;6.354;2022-12-18T14:14:45;39.72;;;21.77;;
27375;SDS011;14844;51.302;6.354;2022-12-18T14:17:12;38.35;;;21.35;;
27375;SDS011;14844;51.302;6.354;2022-12-18T14:19:46;38.80;;;21.42;;
27375;SDS011;14844;51.302;6.354;2022-12-18T14:22:14;39.10;;;21.55;;
27375;SDS011;14844;51.302;6.354;2022-12-18T14:24:45;40.63;;;21.42;;
27375;SDS011;14844;51.302;6.354;2022-12-18T14:27:13;39.35;;;21.20;;
27375;SDS011;14844;51.302;6.354;2022-12-18T14:29:46;38.53;;;22.30;;
27375;SDS011;14844;51.302;6.354;2022-12-18T14:32:16;38.05;;;22.10;;
27375;SDS011;14844;51.302;6.354;2022-12-18T14:37:10;39.75;;;21.60;;
27375;SDS011;14844;51.302;6.354;2022-12-18T14:39:37;40.40;;;22.20;;
27375;SDS011;14844;51.302;6.354;2022-12-18T14:42:04;39.97;;;22.40;;
27375;SDS011;14844;51.302;6.354;2022-12-18T14:44:43;42.40;;;22.60;;
27375;SDS011;14844;51.302;6.354;2022-12-18T14:47:13;41.65;;;21.95;;
27375;SDS011;14844;51.302;6.354;2022-12-18T14:49:40;40.05;;;22.08;;
27375;SDS011;14844;51.302;6.354;2022-12-18T14:52:28;44.30;;;21.95;;
27375;SDS011;14844;51.302;6.354;2022-12-18T14:54:54;46.10;;;23.00;;
27375;SDS011;14844;51.302;6.354;2022-12-18T14:57:28;43.58;;;23.30;;
27375;SDS011;14844;51.302;6.354;2022-12-18T15:00:11;40.45;;;22.83;;
27375;SDS011;14844;51.302;6.354;2022-12-18T15:02:41;38.00;;;22.02;;
27375;SDS011;14844;51.302;6.354;2022-12-18T15:07:50;41.85;;;22.38;;
27375;SDS011;14844;51.302;6.354;2022-12-18T15:10:20;40.63;;;22.80;;
27375;SDS011;14844;51.302;6.354;2022-12-18T15:12:49;44.35;;;23.23;;
27375;SDS011;14844;51.302;6.354;2022-12-18T15:20:43;43.80;;;24.92;;
27375;SDS011;14844;51.302;6.354;2022-12-18T15:23:17;42.92;;;24.55;;
27375;SDS011;14844;51.302;6.354;2022-12-18T15:26:02;43.15;;;24.90;;
27375;SDS011;14844;51.302;6.354;2022-12-18T15:33:36;42.40;;;24.25;;
27375;SDS011;14844;51.302;6.354;2022-12-18T15:38:30;45.38;;;24.33;;
27375;SDS011;14844;51.302;6.354;2022-12-18T15:40:56;43.17;;;24.70;;
27375;SDS011;14844;51.302;6.354;2022-12-18T15:43:23;44.63;;;25.17;;
27375;SDS011;14844;51.302;6.354;2022-12-18T15:46:15;42.00;;;23.65;;
27375;SDS011;14844;51.302;6.354;2022-12-18T15:51:13;43.58;;;23.63;;
27375;SDS011;14844;51.302;6.354;2022-12-18T15:53:45;44.03;;;23.48;;
27375;SDS011;14844;51.302;6.354;2022-12-18T15:56:12;44.72;;;24.63;;
27375;SDS011;14844;51.302;6.354;2022-12-18T15:58:57;46.60;;;25.23;;
27375;SDS011;14844;51.302;6.354;2022-12-18T16:01:23;43.08;;;24.45;;
27375;SDS011;14844;51.302;6.354;2022-12-18T16:04:00;46.97;;;24.88;;
27375;SDS011;14844;51.302;6.354;2022-12-18T16:06:37;45.45;;;24.98;;
27375;SDS011;14844;51.302;6.354;2022-12-18T16:09:02;45.53;;;24.88;;
27375;SDS011;14844;51.302;6.354;2022-12-18T16:11:28;50.72;;;25.45;;
27375;SDS011;14844;51.302;6.354;2022-12-18T16:14:08;46.95;;;25.25;;
27375;SDS011;14844;51.302;6.354;2022-12-18T16:16:41;47.08;;;25.95;;
27375;SDS011;14844;51.302;6.354;2022-12-18T16:19:07;46.58;;;26.10;;
27375;SDS011;14844;51.302;6.354;2022-12-18T16:21:33;50.75;;;27.58;;
27375;SDS011;14844;51.302;6.354;2022-12-18T16:23:58;47.47;;;26.38;;
27375;SDS011;14844;51.302;6.354;2022-12-18T16:26:24;49.67;;;27.05;;
27375;SDS011;14844;51.302;6.354;2022-12-18T16:28:52;48.22;;;26.45;;
27375;SDS011;14844;51.302;6.354;2022-12-18T16:31:26;47.90;;;25.38;;
27375;SDS011;14844;51.302;6.354;2022-12-18T16:34:09;48.28;;;26.88;;
27375;SDS011;14844;51.302;6.354;2022-12-18T16:36:55;50.80;;;26.40;;
27375;SDS011;14844;51.302;6.354;2022-12-18T16:39:21;46.28;;;25.83;;
27375;SDS011;14844;51.302;6.354;2022-12-18T16:41:47;46.05;;;25.88;;
27375;SDS011;14844;51.302;6.354;2022-12-18T16:44:13;51.63;;;26.98;;